Main page
METAR-TAF:

METAR-TAF

Airports :

Laupheim, Germany

Laupheim Air Base

latitude: 48-13N, longitude: 009-55E, elevation: 538 m

Current weather observation

The report was made 1 hour and 6 minutes ago, at 18:20 UTC
Wind 3 kt from the West
Temperature 15°C
Humidity 77%
Pressure 1016 hPa
Visibility 10 km or more
Few clouds at a height of 8000 ft
Broken clouds at a height of 12000 ft

METAR: ETHL 211820Z 27003KT 9999 FEW080 BKN120 15/11 Q1016 BLU

Time: 21:26 (19:26 UTC)


TAF: missing

Weather observations and forecasts of more than 4000 airports (METAR and TAF reports).

The available stations are represented by yellow and red dots on the map.

Hover mouse over dot to see the name of the station.

Then click to see weather observations and forecasts.

To change the map : click on the green buttons with a black cross to zoom in, on the green button with a dash to zoom out, or on the green arrows for adjacent maps.


METAR-TAF: